sensor_id;sensor_type;location;lat;lon;timestamp;P1;durP1;ratioP1;P2;durP2;ratioP2
39050;SDS011;24805;55.852;37.644;2022-12-29T00:01:20;3.85;;;1.33;;
39050;SDS011;24805;55.852;37.644;2022-12-29T00:06:23;2.80;;;1.40;;
39050;SDS011;24805;55.852;37.644;2022-12-29T00:11:26;2.88;;;1.38;;
39050;SDS011;24805;55.852;37.644;2022-12-29T00:16:29;2.95;;;1.27;;
39050;SDS011;24805;55.852;37.644;2022-12-29T00:21:32;3.28;;;1.17;;
39050;SDS011;24805;55.852;37.644;2022-12-29T00:32:23;1.73;;;0.50;;
39050;SDS011;24805;55.852;37.644;2022-12-29T00:37:45;3.60;;;1.00;;
39050;SDS011;24805;55.852;37.644;2022-12-29T00:43:08;4.40;;;1.13;;
39050;SDS011;24805;55.852;37.644;2022-12-29T00:48:28;1.90;;;0.90;;
39050;SDS011;24805;55.852;37.644;2022-12-29T00:53:49;1.40;;;0.57;;
39050;SDS011;24805;55.852;37.644;2022-12-29T00:58:51;3.80;;;0.63;;
39050;SDS011;24805;55.852;37.644;2022-12-29T01:03:53;2.50;;;0.50;;
39050;SDS011;24805;55.852;37.644;2022-12-29T01:09:03;2.80;;;0.40;;
39050;SDS011;24805;55.852;37.644;2022-12-29T01:14:24;1.88;;;0.40;;
39050;SDS011;24805;55.852;37.644;2022-12-29T01:19:26;2.30;;;0.55;;
39050;SDS011;24805;55.852;37.644;2022-12-29T01:24:30;3.03;;;0.63;;
39050;SDS011;24805;55.852;37.644;2022-12-29T01:29:32;2.88;;;0.52;;
39050;SDS011;24805;55.852;37.644;2022-12-29T01:34:34;1.58;;;0.50;;
39050;SDS011;24805;55.852;37.644;2022-12-29T01:39:37;3.35;;;0.68;;
39050;SDS011;24805;55.852;37.644;2022-12-29T01:44:47;3.50;;;1.02;;
39050;SDS011;24805;55.852;37.644;2022-12-29T01:49:52;2.13;;;0.40;;
39050;SDS011;24805;55.852;37.644;2022-12-29T01:54:57;5.85;;;0.60;;
39050;SDS011;24805;55.852;37.644;2022-12-29T02:00:02;3.00;;;0.75;;
39050;SDS011;24805;55.852;37.644;2022-12-29T02:05:23;2.40;;;0.68;;
39050;SDS011;24805;55.852;37.644;2022-12-29T02:10:31;5.22;;;0.82;;
39050;SDS011;24805;55.852;37.644;2022-12-29T02:20:55;4.63;;;0.75;;
39050;SDS011;24805;55.852;37.644;2022-12-29T02:36:44;7.47;;;1.30;;
39050;SDS011;24805;55.852;37.644;2022-12-29T02:42:13;4.75;;;1.42;;
39050;SDS011;24805;55.852;37.644;2022-12-29T02:47:39;2.92;;;0.82;;
39050;SDS011;24805;55.852;37.644;2022-12-29T02:52:54;4.72;;;0.75;;
39050;SDS011;24805;55.852;37.644;2022-12-29T02:58:20;3.25;;;0.88;;
39050;SDS011;24805;55.852;37.644;2022-12-29T03:08:58;6.35;;;1.08;;
39050;SDS011;24805;55.852;37.644;2022-12-29T03:14:05;4.13;;;0.73;;
39050;SDS011;24805;55.852;37.644;2022-12-29T03:19:36;5.95;;;1.05;;
39050;SDS011;24805;55.852;37.644;2022-12-29T03:24:44;6.28;;;1.38;;
39050;SDS011;24805;55.852;37.644;2022-12-29T03:29:54;3.83;;;0.82;;
39050;SDS011;24805;55.852;37.644;2022-12-29T03:34:59;5.55;;;1.00;;
39050;SDS011;24805;55.852;37.644;2022-12-29T03:40:04;4.25;;;1.25;;
39050;SDS011;24805;55.852;37.644;2022-12-29T03:45:07;3.03;;;0.73;;
39050;SDS011;24805;55.852;37.644;2022-12-29T03:50:11;5.82;;;1.35;;
39050;SDS011;24805;55.852;37.644;2022-12-29T03:55:16;5.63;;;1.52;;
39050;SDS011;24805;55.852;37.644;2022-12-29T04:00:20;7.20;;;1.27;;
39050;SDS011;24805;55.852;37.644;2022-12-29T04:05:24;4.90;;;0.63;;
39050;SDS011;24805;55.852;37.644;2022-12-29T04:10:28;5.70;;;1.23;;
39050;SDS011;24805;55.852;37.644;2022-12-29T04:15:33;4.18;;;1.30;;
39050;SDS011;24805;55.852;37.644;2022-12-29T04:20:36;2.28;;;0.85;;
39050;SDS011;24805;55.852;37.644;2022-12-29T04:26:19;5.75;;;1.10;;
39050;SDS011;24805;55.852;37.644;2022-12-29T04:31:33;2.85;;;1.05;;
39050;SDS011;24805;55.852;37.644;2022-12-29T04:36:35;4.63;;;1.42;;
39050;SDS011;24805;55.852;37.644;2022-12-29T04:41:38;5.25;;;1.38;;
39050;SDS011;24805;55.852;37.644;2022-12-29T04:46:43;5.53;;;1.63;;
39050;SDS011;24805;55.852;37.644;2022-12-29T04:51:56;7.60;;;2.35;;
39050;SDS011;24805;55.852;37.644;2022-12-29T04:56:58;7.85;;;1.63;;
39050;SDS011;24805;55.852;37.644;2022-12-29T05:02:01;3.95;;;1.33;;
39050;SDS011;24805;55.852;37.644;2022-12-29T05:07:04;6.82;;;1.70;;
39050;SDS011;24805;55.852;37.644;2022-12-29T05:12:06;6.15;;;1.42;;
39050;SDS011;24805;55.852;37.644;2022-12-29T05:17:12;6.68;;;1.60;;
39050;SDS011;24805;55.852;37.644;2022-12-29T05:22:15;4.28;;;1.58;;
39050;SDS011;24805;55.852;37.644;2022-12-29T05:27:19;4.32;;;1.20;;
39050;SDS011;24805;55.852;37.644;2022-12-29T05:32:48;5.65;;;1.45;;
39050;SDS011;24805;55.852;37.644;2022-12-29T05:37:51;7.10;;;2.45;;
39050;SDS011;24805;55.852;37.644;2022-12-29T05:42:53;8.88;;;2.30;;
39050;SDS011;24805;55.852;37.644;2022-12-29T05:48:27;4.63;;;2.10;;
39050;SDS011;24805;55.852;37.644;2022-12-29T05:53:44;5.38;;;1.85;;
39050;SDS011;24805;55.852;37.644;2022-12-29T05:58:46;5.15;;;1.98;;
39050;SDS011;24805;55.852;37.644;2022-12-29T06:03:49;8.75;;;2.85;;
39050;SDS011;24805;55.852;37.644;2022-12-29T06:08:54;7.32;;;2.50;;
39050;SDS011;24805;55.852;37.644;2022-12-29T06:13:56;4.95;;;1.98;;
39050;SDS011;24805;55.852;37.644;2022-12-29T06:18:58;6.07;;;2.42;;
39050;SDS011;24805;55.852;37.644;2022-12-29T06:24:01;6.93;;;2.30;;
39050;SDS011;24805;55.852;37.644;2022-12-29T06:29:03;8.80;;;2.42;;
39050;SDS011;24805;55.852;37.644;2022-12-29T06:34:06;6.65;;;3.00;;
39050;SDS011;24805;55.852;37.644;2022-12-29T06:39:10;8.20;;;3.17;;
39050;SDS011;24805;55.852;37.644;2022-12-29T06:44:12;8.88;;;3.75;;
39050;SDS011;24805;55.852;37.644;2022-12-29T06:49:25;8.27;;;3.90;;
39050;SDS011;24805;55.852;37.644;2022-12-29T06:54:27;7.95;;;3.20;;
39050;SDS011;24805;55.852;37.644;2022-12-29T06:59:29;9.05;;;3.25;;
39050;SDS011;24805;55.852;37.644;2022-12-29T07:04:31;9.80;;;3.65;;
39050;SDS011;24805;55.852;37.644;2022-12-29T07:09:34;7.60;;;3.50;;
39050;SDS011;24805;55.852;37.644;2022-12-29T07:14:36;5.80;;;3.20;;
39050;SDS011;24805;55.852;37.644;2022-12-29T07:19:44;13.85;;;3.42;;
39050;SDS011;24805;55.852;37.644;2022-12-29T07:24:46;8.73;;;2.92;;
39050;SDS011;24805;55.852;37.644;2022-12-29T07:29:48;6.47;;;2.63;;
39050;SDS011;24805;55.852;37.644;2022-12-29T07:34:50;7.05;;;3.15;;
39050;SDS011;24805;55.852;37.644;2022-12-29T07:39:53;10.32;;;3.70;;
39050;SDS011;24805;55.852;37.644;2022-12-29T07:44:55;9.60;;;3.90;;
39050;SDS011;24805;55.852;37.644;2022-12-29T07:50:04;8.98;;;3.97;;
39050;SDS011;24805;55.852;37.644;2022-12-29T07:55:07;8.35;;;3.85;;
39050;SDS011;24805;55.852;37.644;2022-12-29T08:00:10;10.52;;;5.13;;
39050;SDS011;24805;55.852;37.644;2022-12-29T08:05:13;8.48;;;3.33;;
39050;SDS011;24805;55.852;37.644;2022-12-29T08:10:17;8.63;;;3.63;;
39050;SDS011;24805;55.852;37.644;2022-12-29T08:15:19;6.53;;;2.97;;
39050;SDS011;24805;55.852;37.644;2022-12-29T08:20:25;6.13;;;3.22;;
39050;SDS011;24805;55.852;37.644;2022-12-29T08:25:27;9.23;;;3.55;;
39050;SDS011;24805;55.852;37.644;2022-12-29T08:30:29;9.13;;;3.67;;
39050;SDS011;24805;55.852;37.644;2022-12-29T08:35:31;6.60;;;3.20;;
39050;SDS011;24805;55.852;37.644;2022-12-29T08:40:34;9.70;;;3.03;;
39050;SDS011;24805;55.852;37.644;2022-12-29T08:45:36;6.55;;;3.28;;
39050;SDS011;24805;55.852;37.644;2022-12-29T08:50:38;8.95;;;2.72;;
39050;SDS011;24805;55.852;37.644;2022-12-29T08:55:40;5.60;;;2.70;;
39050;SDS011;24805;55.852;37.644;2022-12-29T09:00:42;5.38;;;3.13;;
39050;SDS011;24805;55.852;37.644;2022-12-29T09:05:52;6.63;;;3.72;;
39050;SDS011;24805;55.852;37.644;2022-12-29T09:10:55;6.70;;;3.15;;
39050;SDS011;24805;55.852;37.644;2022-12-29T09:15:57;4.18;;;2.17;;
39050;SDS011;24805;55.852;37.644;2022-12-29T09:21:02;6.70;;;3.60;;
39050;SDS011;24805;55.852;37.644;2022-12-29T09:26:06;7.65;;;3.55;;
39050;SDS011;24805;55.852;37.644;2022-12-29T09:31:09;6.60;;;3.38;;
39050;SDS011;24805;55.852;37.644;2022-12-29T09:36:12;4.47;;;2.70;;
39050;SDS011;24805;55.852;37.644;2022-12-29T09:41:16;5.38;;;3.33;;
39050;SDS011;24805;55.852;37.644;2022-12-29T09:46:47;7.93;;;3.28;;
39050;SDS011;24805;55.852;37.644;2022-12-29T09:51:53;8.75;;;3.88;;
39050;SDS011;24805;55.852;37.644;2022-12-29T09:56:58;10.35;;;4.45;;
39050;SDS011;24805;55.852;37.644;2022-12-29T10:02:05;8.70;;;3.60;;
39050;SDS011;24805;55.852;37.644;2022-12-29T10:13:34;7.03;;;3.80;;
39050;SDS011;24805;55.852;37.644;2022-12-29T10:24:06;7.53;;;3.63;;
39050;SDS011;24805;55.852;37.644;2022-12-29T10:29:56;6.00;;;3.35;;
39050;SDS011;24805;55.852;37.644;2022-12-29T10:34:44;7.72;;;4.35;;
39050;SDS011;24805;55.852;37.644;2022-12-29T10:39:53;12.07;;;5.80;;
39050;SDS011;24805;55.852;37.644;2022-12-29T10:44:58;8.88;;;4.80;;
39050;SDS011;24805;55.852;37.644;2022-12-29T10:50:01;15.68;;;6.30;;
39050;SDS011;24805;55.852;37.644;2022-12-29T10:55:12;10.75;;;5.78;;
39050;SDS011;24805;55.852;37.644;2022-12-29T11:00:20;16.15;;;7.18;;
39050;SDS011;24805;55.852;37.644;2022-12-29T11:15:44;12.82;;;6.72;;
39050;SDS011;24805;55.852;37.644;2022-12-29T11:20:51;16.48;;;9.93;;
39050;SDS011;24805;55.852;37.644;2022-12-29T11:26:11;13.07;;;7.40;;
39050;SDS011;24805;55.852;37.644;2022-12-29T11:31:17;11.95;;;6.38;;
39050;SDS011;24805;55.852;37.644;2022-12-29T11:36:23;12.48;;;6.47;;
39050;SDS011;24805;55.852;37.644;2022-12-29T11:41:29;9.15;;;6.20;;
39050;SDS011;24805;55.852;37.644;2022-12-29T11:46:34;12.25;;;6.35;;
39050;SDS011;24805;55.852;37.644;2022-12-29T11:51:46;13.77;;;7.40;;
39050;SDS011;24805;55.852;37.644;2022-12-29T11:56:50;14.75;;;7.22;;
39050;SDS011;24805;55.852;37.644;2022-12-29T12:01:53;13.30;;;7.40;;
39050;SDS011;24805;55.852;37.644;2022-12-29T12:07:00;12.23;;;6.97;;
39050;SDS011;24805;55.852;37.644;2022-12-29T12:12:15;16.75;;;7.35;;
39050;SDS011;24805;55.852;37.644;2022-12-29T12:17:37;13.95;;;7.95;;
39050;SDS011;24805;55.852;37.644;2022-12-29T12:22:58;19.23;;;11.30;;
39050;SDS011;24805;55.852;37.644;2022-12-29T12:33:44;17.13;;;8.55;;
39050;SDS011;24805;55.852;37.644;2022-12-29T13:05:20;14.90;;;9.60;;
39050;SDS011;24805;55.852;37.644;2022-12-29T13:10:47;17.63;;;10.30;;
39050;SDS011;24805;55.852;37.644;2022-12-29T13:21:33;20.15;;;10.35;;
39050;SDS011;24805;55.852;37.644;2022-12-29T13:26:49;24.33;;;11.90;;
39050;SDS011;24805;55.852;37.644;2022-12-29T13:31:57;24.08;;;11.18;;
39050;SDS011;24805;55.852;37.644;2022-12-29T13:37:18;23.45;;;11.23;;
39050;SDS011;24805;55.852;37.644;2022-12-29T13:42:27;19.50;;;10.85;;
39050;SDS011;24805;55.852;37.644;2022-12-29T13:47:34;25.25;;;13.25;;
39050;SDS011;24805;55.852;37.644;2022-12-29T14:09:04;16.92;;;9.82;;
39050;SDS011;24805;55.852;37.644;2022-12-29T14:14:11;18.20;;;9.98;;
39050;SDS011;24805;55.852;37.644;2022-12-29T14:34:42;21.08;;;11.50;;
39050;SDS011;24805;55.852;37.644;2022-12-29T14:40:03;19.20;;;11.07;;
39050;SDS011;24805;55.852;37.644;2022-12-29T15:00:42;20.00;;;12.70;;
39050;SDS011;24805;55.852;37.644;2022-12-29T15:05:50;19.73;;;11.05;;
39050;SDS011;24805;55.852;37.644;2022-12-29T15:11:00;19.52;;;10.77;;
39050;SDS011;24805;55.852;37.644;2022-12-29T15:16:26;19.13;;;10.93;;
39050;SDS011;24805;55.852;37.644;2022-12-29T15:21:37;20.88;;;10.93;;
39050;SDS011;24805;55.852;37.644;2022-12-29T15:26:45;21.67;;;10.52;;
39050;SDS011;24805;55.852;37.644;2022-12-29T15:31:48;19.23;;;10.52;;
39050;SDS011;24805;55.852;37.644;2022-12-29T15:36:51;24.13;;;11.80;;
39050;SDS011;24805;55.852;37.644;2022-12-29T15:41:54;21.02;;;11.15;;
39050;SDS011;24805;55.852;37.644;2022-12-29T15:47:02;22.42;;;11.32;;
39050;SDS011;24805;55.852;37.644;2022-12-29T15:52:10;25.60;;;11.98;;
39050;SDS011;24805;55.852;37.644;2022-12-29T15:57:21;18.95;;;12.00;;
39050;SDS011;24805;55.852;37.644;2022-12-29T16:02:25;24.38;;;12.73;;
39050;SDS011;24805;55.852;37.644;2022-12-29T16:07:29;19.40;;;11.57;;
39050;SDS011;24805;55.852;37.644;2022-12-29T16:12:41;22.45;;;12.63;;
39050;SDS011;24805;55.852;37.644;2022-12-29T16:17:47;22.00;;;12.43;;
39050;SDS011;24805;55.852;37.644;2022-12-29T16:22:55;28.17;;;12.63;;
39050;SDS011;24805;55.852;37.644;2022-12-29T16:27:59;25.55;;;13.32;;
39050;SDS011;24805;55.852;37.644;2022-12-29T16:33:04;32.70;;;12.77;;
39050;SDS011;24805;55.852;37.644;2022-12-29T16:38:16;33.90;;;16.00;;
39050;SDS011;24805;55.852;37.644;2022-12-29T16:43:26;28.20;;;12.98;;
39050;SDS011;24805;55.852;37.644;2022-12-29T16:48:35;32.65;;;13.98;;
39050;SDS011;24805;55.852;37.644;2022-12-29T16:53:48;29.92;;;14.95;;
39050;SDS011;24805;55.852;37.644;2022-12-29T16:59:02;31.88;;;14.43;;
39050;SDS011;24805;55.852;37.644;2022-12-29T17:04:09;28.50;;;14.82;;
39050;SDS011;24805;55.852;37.644;2022-12-29T17:09:20;27.20;;;14.23;;
39050;SDS011;24805;55.852;37.644;2022-12-29T17:19:50;38.08;;;17.52;;
39050;SDS011;24805;55.852;37.644;2022-12-29T17:24:54;36.95;;;18.17;;
39050;SDS011;24805;55.852;37.644;2022-12-29T17:30:02;33.45;;;16.20;;
39050;SDS011;24805;55.852;37.644;2022-12-29T17:35:17;41.33;;;18.02;;
39050;SDS011;24805;55.852;37.644;2022-12-29T17:40:21;40.58;;;19.15;;
39050;SDS011;24805;55.852;37.644;2022-12-29T17:45:30;39.35;;;20.50;;
39050;SDS011;24805;55.852;37.644;2022-12-29T17:50:33;44.17;;;20.42;;
39050;SDS011;24805;55.852;37.644;2022-12-29T17:55:36;50.17;;;20.80;;
39050;SDS011;24805;55.852;37.644;2022-12-29T18:00:39;46.05;;;20.23;;
39050;SDS011;24805;55.852;37.644;2022-12-29T18:05:41;50.78;;;21.05;;
39050;SDS011;24805;55.852;37.644;2022-12-29T18:10:44;42.80;;;20.00;;
39050;SDS011;24805;55.852;37.644;2022-12-29T18:15:46;37.70;;;19.13;;
39050;SDS011;24805;55.852;37.644;2022-12-29T18:20:50;47.53;;;21.38;;
39050;SDS011;24805;55.852;37.644;2022-12-29T18:31:08;40.67;;;20.35;;
39050;SDS011;24805;55.852;37.644;2022-12-29T18:36:17;46.95;;;20.60;;
39050;SDS011;24805;55.852;37.644;2022-12-29T18:41:21;43.20;;;19.38;;
39050;SDS011;24805;55.852;37.644;2022-12-29T18:46:25;47.38;;;20.83;;
39050;SDS011;24805;55.852;37.644;2022-12-29T18:51:28;42.72;;;19.13;;
39050;SDS011;24805;55.852;37.644;2022-12-29T18:56:30;39.85;;;19.10;;
39050;SDS011;24805;55.852;37.644;2022-12-29T19:01:32;46.10;;;18.80;;
39050;SDS011;24805;55.852;37.644;2022-12-29T19:06:34;47.72;;;19.45;;
39050;SDS011;24805;55.852;37.644;2022-12-29T19:11:36;45.75;;;19.90;;
39050;SDS011;24805;55.852;37.644;2022-12-29T19:16:38;42.47;;;18.77;;
39050;SDS011;24805;55.852;37.644;2022-12-29T19:21:42;48.97;;;20.45;;
39050;SDS011;24805;55.852;37.644;2022-12-29T19:26:45;47.03;;;18.88;;
39050;SDS011;24805;55.852;37.644;2022-12-29T19:31:47;42.38;;;18.42;;
39050;SDS011;24805;55.852;37.644;2022-12-29T19:36:49;42.13;;;17.67;;
39050;SDS011;24805;55.852;37.644;2022-12-29T19:41:51;38.97;;;18.50;;
39050;SDS011;24805;55.852;37.644;2022-12-29T19:46:53;36.90;;;17.50;;
39050;SDS011;24805;55.852;37.644;2022-12-29T19:51:55;31.85;;;16.33;;
39050;SDS011;24805;55.852;37.644;2022-12-29T19:56:57;37.50;;;17.88;;
39050;SDS011;24805;55.852;37.644;2022-12-29T20:01:59;41.50;;;18.77;;
39050;SDS011;24805;55.852;37.644;2022-12-29T20:07:02;40.42;;;19.25;;
39050;SDS011;24805;55.852;37.644;2022-12-29T20:12:04;36.72;;;17.88;;
39050;SDS011;24805;55.852;37.644;2022-12-29T20:17:08;40.97;;;17.95;;
39050;SDS011;24805;55.852;37.644;2022-12-29T20:22:12;34.70;;;17.52;;
39050;SDS011;24805;55.852;37.644;2022-12-29T20:27:14;45.65;;;18.20;;
39050;SDS011;24805;55.852;37.644;2022-12-29T20:32:18;29.67;;;15.25;;
39050;SDS011;24805;55.852;37.644;2022-12-29T20:37:22;40.25;;;17.98;;
39050;SDS011;24805;55.852;37.644;2022-12-29T20:42:24;40.45;;;18.13;;
39050;SDS011;24805;55.852;37.644;2022-12-29T20:47:26;40.47;;;18.50;;
39050;SDS011;24805;55.852;37.644;2022-12-29T20:52:28;41.53;;;17.75;;
39050;SDS011;24805;55.852;37.644;2022-12-29T20:57:30;43.97;;;18.58;;
39050;SDS011;24805;55.852;37.644;2022-12-29T21:02:53;38.40;;;17.88;;
39050;SDS011;24805;55.852;37.644;2022-12-29T21:07:56;42.03;;;18.23;;
39050;SDS011;24805;55.852;37.644;2022-12-29T21:13:00;38.63;;;17.70;;
39050;SDS011;24805;55.852;37.644;2022-12-29T21:18:02;35.13;;;16.63;;
39050;SDS011;24805;55.852;37.644;2022-12-29T21:23:04;38.13;;;19.40;;
39050;SDS011;24805;55.852;37.644;2022-12-29T21:28:08;38.42;;;16.73;;
39050;SDS011;24805;55.852;37.644;2022-12-29T21:33:14;38.90;;;17.60;;
39050;SDS011;24805;55.852;37.644;2022-12-29T21:38:21;39.90;;;16.73;;
39050;SDS011;24805;55.852;37.644;2022-12-29T21:43:23;38.30;;;18.38;;
39050;SDS011;24805;55.852;37.644;2022-12-29T21:48:25;38.42;;;17.67;;
39050;SDS011;24805;55.852;37.644;2022-12-29T21:53:30;42.28;;;17.85;;
39050;SDS011;24805;55.852;37.644;2022-12-29T21:58:41;31.92;;;14.50;;
39050;SDS011;24805;55.852;37.644;2022-12-29T22:04:03;34.60;;;16.80;;
39050;SDS011;24805;55.852;37.644;2022-12-29T22:09:24;35.30;;;17.60;;
39050;SDS011;24805;55.852;37.644;2022-12-29T22:14:44;32.67;;;16.33;;
39050;SDS011;24805;55.852;37.644;2022-12-29T22:19:46;35.47;;;16.73;;
39050;SDS011;24805;55.852;37.644;2022-12-29T22:24:48;34.92;;;17.63;;
39050;SDS011;24805;55.852;37.644;2022-12-29T22:29:50;36.15;;;17.30;;
39050;SDS011;24805;55.852;37.644;2022-12-29T22:34:52;35.30;;;18.05;;
39050;SDS011;24805;55.852;37.644;2022-12-29T22:39:55;33.53;;;16.33;;
39050;SDS011;24805;55.852;37.644;2022-12-29T22:44:57;36.25;;;18.27;;
39050;SDS011;24805;55.852;37.644;2022-12-29T22:49:59;33.33;;;18.15;;
39050;SDS011;24805;55.852;37.644;2022-12-29T22:55:01;32.65;;;16.88;;
39050;SDS011;24805;55.852;37.644;2022-12-29T23:00:08;35.50;;;18.15;;
39050;SDS011;24805;55.852;37.644;2022-12-29T23:05:10;35.00;;;18.33;;
39050;SDS011;24805;55.852;37.644;2022-12-29T23:10:12;37.67;;;19.50;;
39050;SDS011;24805;55.852;37.644;2022-12-29T23:15:14;38.40;;;17.58;;
39050;SDS011;24805;55.852;37.644;2022-12-29T23:20:16;43.28;;;20.20;;
39050;SDS011;24805;55.852;37.644;2022-12-29T23:25:18;39.63;;;18.67;;
39050;SDS011;24805;55.852;37.644;2022-12-29T23:30:20;42.15;;;19.73;;
39050;SDS011;24805;55.852;37.644;2022-12-29T23:35:22;39.38;;;18.60;;
39050;SDS011;24805;55.852;37.644;2022-12-29T23:40:25;40.85;;;19.77;;
39050;SDS011;24805;55.852;37.644;2022-12-29T23:45:27;40.40;;;20.88;;
39050;SDS011;24805;55.852;37.644;2022-12-29T23:50:29;36.95;;;18.20;;
39050;SDS011;24805;55.852;37.644;2022-12-29T23:55:31;43.78;;;20.95;;
